createdAt,value
2023-01-28T00:00:31.562Z,1.10
2023-01-28T00:01:34.417Z,1.10
2023-01-28T00:02:36.548Z,1.00
2023-01-28T00:03:40.081Z,1.00
2023-01-28T00:04:42.021Z,1.00
2023-01-28T00:05:46.232Z,1.00
2023-01-28T00:06:48.197Z,1.00
2023-01-28T00:07:51.523Z,1.00
2023-01-28T00:08:54.780Z,1.00
2023-01-28T00:09:57.684Z,1.00
2023-01-28T00:11:00.619Z,1.00
2023-01-28T00:12:03.627Z,1.00
2023-01-28T00:13:05.520Z,1.00
2023-01-28T00:14:08.501Z,1.00
2023-01-28T00:15:11.903Z,1.00
2023-01-28T00:16:14.998Z,1.00
2023-01-28T00:17:16.938Z,1.00
2023-01-28T00:18:19.862Z,1.00
2023-01-28T00:19:21.765Z,1.00
2023-01-28T00:20:24.619Z,1.10
2023-01-28T00:21:27.868Z,1.10
2023-01-28T00:22:31.746Z,1.10
2023-01-28T00:23:34.114Z,1.10
2023-01-28T00:24:36.991Z,1.00
2023-01-28T00:25:39.036Z,1.10
2023-01-28T00:26:42.336Z,1.10
2023-01-28T00:27:45.198Z,1.00
2023-01-28T00:28:48.128Z,1.10
2023-01-28T00:29:50.722Z,1.10
2023-01-28T00:30:53.653Z,1.10
2023-01-28T00:31:55.618Z,1.10
2023-01-28T00:32:58.646Z,1.10
2023-01-28T00:34:00.616Z,1.10
2023-01-28T00:35:03.515Z,1.10
2023-01-28T00:36:06.622Z,1.10
2023-01-28T00:37:11.429Z,1.10
2023-01-28T00:38:13.483Z,1.10
2023-01-28T00:39:16.391Z,1.10
2023-01-28T00:40:18.442Z,1.10
2023-01-28T00:41:22.917Z,1.10
2023-01-28T00:42:26.164Z,1.10
2023-01-28T00:43:31.946Z,1.10
2023-01-28T00:44:33.948Z,1.10
2023-01-28T00:45:39.707Z,1.10
2023-01-28T00:46:41.942Z,1.10
2023-01-28T00:47:45.722Z,1.10
2023-01-28T00:48:47.685Z,1.10
2023-01-28T00:49:50.552Z,1.10
2023-01-28T00:50:52.459Z,1.10
2023-01-28T00:51:56.249Z,1.10
2023-01-28T00:52:59.486Z,1.10
2023-01-28T00:54:02.469Z,1.10
2023-01-28T00:55:04.828Z,1.20
2023-01-28T00:56:08.645Z,1.20
2023-01-28T00:57:10.778Z,1.20
2023-01-28T00:58:13.632Z,1.20
2023-01-28T00:59:15.484Z,1.20
2023-01-28T01:00:20.289Z,1.20
2023-01-28T01:01:24.667Z,1.20
2023-01-28T01:02:27.658Z,1.20
2023-01-28T01:03:29.606Z,1.10
2023-01-28T01:04:35.436Z,1.10
2023-01-28T01:05:38.510Z,1.20
2023-01-28T01:06:43.744Z,1.20
2023-01-28T01:07:45.617Z,1.20
2023-01-28T01:08:50.997Z,1.20
2023-01-28T01:09:53.176Z,1.20
2023-01-28T01:10:59.340Z,1.20
2023-01-28T01:12:01.421Z,1.10
2023-01-28T01:13:04.959Z,1.10
2023-01-28T01:14:07.172Z,1.10
2023-01-28T01:15:11.221Z,1.10
2023-01-28T01:16:14.185Z,1.10
2023-01-28T01:17:17.464Z,1.10
2023-01-28T01:18:19.423Z,1.10
2023-01-28T01:19:23.081Z,1.10
2023-01-28T01:20:27.023Z,1.10
2023-01-28T01:21:30.754Z,1.10
2023-01-28T01:22:33.460Z,1.10
2023-01-28T01:23:38.540Z,1.10
2023-01-28T01:24:42.073Z,1.10
2023-01-28T01:25:44.949Z,1.10
2023-01-28T01:26:46.826Z,1.10
2023-01-28T01:27:50.273Z,1.10
2023-01-28T01:28:53.340Z,1.10
2023-01-28T01:29:56.214Z,1.10
2023-01-28T01:31:01.458Z,1.10
2023-01-28T01:32:04.689Z,1.10
2023-01-28T01:33:06.604Z,1.10
2023-01-28T01:34:10.727Z,1.10
2023-01-28T01:35:13.090Z,1.10
2023-01-28T01:36:17.131Z,1.10
2023-01-28T01:37:19.661Z,1.10
2023-01-28T01:38:22.605Z,1.10
2023-01-28T01:39:24.685Z,1.10
2023-01-28T01:40:29.535Z,1.10
2023-01-28T01:41:32.928Z,1.10
2023-01-28T01:42:36.029Z,1.10
2023-01-28T01:43:48.517Z,1.10
2023-01-28T01:44:57.128Z,1.10
2023-01-28T01:46:00.624Z,1.10
2023-01-28T01:47:03.772Z,1.20
2023-01-28T01:48:12.884Z,1.20
2023-01-28T01:49:19.409Z,1.20
2023-01-28T01:50:24.442Z,1.20
2023-01-28T01:51:29.167Z,1.20
2023-01-28T01:52:33.625Z,1.20
2023-01-28T01:53:38.081Z,1.20
2023-01-28T01:54:41.370Z,1.20
2023-01-28T01:55:47.755Z,1.20
2023-01-28T01:56:50.391Z,1.20
2023-01-28T01:57:56.552Z,1.20
2023-01-28T01:59:00.615Z,1.20
2023-01-28T02:00:06.729Z,1.20
2023-01-28T02:01:20.532Z,1.20
2023-01-28T02:02:24.094Z,1.20
2023-01-28T02:03:29.147Z,1.20
2023-01-28T02:04:32.957Z,1.20
2023-01-28T02:05:34.898Z,1.20
2023-01-28T02:06:38.754Z,1.10
2023-01-28T02:07:41.622Z,1.20
2023-01-28T02:08:45.163Z,1.20
2023-01-28T02:09:47.149Z,1.20
2023-01-28T02:10:53.988Z,1.20
2023-01-28T02:11:57.920Z,1.20
2023-01-28T02:13:01.380Z,1.20
2023-01-28T02:14:04.737Z,1.30
2023-01-28T02:15:09.933Z,1.30
2023-01-28T02:16:12.567Z,1.30
2023-01-28T02:17:15.568Z,1.30
2023-01-28T02:18:17.772Z,1.30
2023-01-28T02:19:21.756Z,1.30
2023-01-28T02:20:27.502Z,1.30
2023-01-28T02:22:03.802Z,1.30
2023-01-28T02:23:17.983Z,1.30
2023-01-28T02:24:29.167Z,1.30
2023-01-28T02:25:41.377Z,1.30
2023-01-28T02:26:51.974Z,1.30
2023-01-28T02:28:01.516Z,1.30
2023-01-28T02:29:06.932Z,1.30
2023-01-28T02:30:13.095Z,1.30
2023-01-28T02:31:18.506Z,1.30
2023-01-28T02:32:23.883Z,1.30
2023-01-28T02:33:30.531Z,1.30
2023-01-28T02:34:36.146Z,1.30
2023-01-28T02:35:42.385Z,1.30
2023-01-28T02:36:48.719Z,1.30
2023-01-28T02:37:54.459Z,1.30
2023-01-28T02:38:58.749Z,1.30
2023-01-28T02:40:03.942Z,1.30
2023-01-28T02:41:10.222Z,1.30
2023-01-28T02:42:16.354Z,1.30
2023-01-28T02:43:29.105Z,1.30
2023-01-28T02:44:32.026Z,1.30
2023-01-28T02:45:49.992Z,1.30
2023-01-28T02:47:10.755Z,1.30
2023-01-28T02:48:14.535Z,1.30
2023-01-28T02:49:18.982Z,1.30
2023-01-28T02:50:21.291Z,1.30
2023-01-28T02:51:29.491Z,1.30
2023-01-28T02:53:02.669Z,1.30
2023-01-28T02:54:11.648Z,1.30
2023-01-28T02:55:17.924Z,1.30
2023-01-28T02:56:29.402Z,1.30
2023-01-28T02:57:37.571Z,1.30
2023-01-28T02:58:44.089Z,1.30
2023-01-28T02:59:49.671Z,1.30
2023-01-28T03:00:57.165Z,1.30
2023-01-28T03:02:02.458Z,1.30
2023-01-28T03:03:09.875Z,1.30
2023-01-28T03:04:15.761Z,1.30
2023-01-28T03:05:20.951Z,1.20
2023-01-28T03:06:26.227Z,1.20
2023-01-28T03:07:30.053Z,1.30
2023-01-28T03:08:53.305Z,1.30
2023-01-28T03:09:58.888Z,1.30
2023-01-28T03:11:19.522Z,1.30
2023-01-28T03:12:41.599Z,1.30
2023-01-28T03:14:03.935Z,1.30
2023-01-28T03:15:27.154Z,1.30
2023-01-28T03:16:49.487Z,1.30
2023-01-28T03:18:13.145Z,1.20
2023-01-28T03:19:34.938Z,1.20
2023-01-28T03:20:58.007Z,1.20
2023-01-28T03:22:18.566Z,1.20
2023-01-28T03:23:43.483Z,1.30
2023-01-28T03:25:06.861Z,1.30
2023-01-28T03:26:27.595Z,1.30
2023-01-28T03:27:51.009Z,1.20
2023-01-28T03:29:12.996Z,1.20
2023-01-28T03:30:35.825Z,1.30
2023-01-28T03:32:01.980Z,1.30
2023-01-28T03:33:23.250Z,1.30
2023-01-28T03:34:44.156Z,1.30
2023-01-28T03:36:05.884Z,1.30
2023-01-28T03:37:09.734Z,1.30
2023-01-28T03:38:22.876Z,1.30
2023-01-28T03:39:28.348Z,1.30
2023-01-28T03:40:30.340Z,1.30
2023-01-28T03:41:33.243Z,1.30
2023-01-28T03:42:35.455Z,1.30
2023-01-28T03:43:46.970Z,1.30
2023-01-28T03:44:51.986Z,1.30
2023-01-28T03:45:55.708Z,1.30
2023-01-28T03:46:58.230Z,1.30
2023-01-28T03:48:01.327Z,1.30
2023-01-28T03:49:03.281Z,1.30
2023-01-28T03:50:07.214Z,1.30
2023-01-28T03:51:17.866Z,1.20
2023-01-28T03:52:22.082Z,1.20
2023-01-28T03:53:24.286Z,1.20
2023-01-28T03:54:28.008Z,1.20
2023-01-28T03:55:30.338Z,1.20
2023-01-28T03:56:37.439Z,1.20
2023-01-28T03:57:39.565Z,1.20
2023-01-28T03:58:52.701Z,1.10
2023-01-28T03:59:55.969Z,1.10
2023-01-28T04:00:59.055Z,1.10
2023-01-28T04:02:03.217Z,1.10
2023-01-28T04:03:15.991Z,1.10
2023-01-28T04:04:24.330Z,1.10
2023-01-28T04:05:27.393Z,1.10
2023-01-28T04:06:31.071Z,1.10
2023-01-28T04:07:55.942Z,1.10
2023-01-28T04:09:18.149Z,1.10
2023-01-28T04:10:30.110Z,1.10
2023-01-28T04:11:40.018Z,1.10
2023-01-28T04:12:44.340Z,1.00
2023-01-28T04:13:47.788Z,1.00
2023-01-28T04:14:51.707Z,1.00
2023-01-28T04:16:03.641Z,1.00
2023-01-28T04:17:11.116Z,1.00
2023-01-28T04:18:14.456Z,1.00
2023-01-28T04:19:18.019Z,1.00
2023-01-28T04:20:20.510Z,1.00
2023-01-28T04:21:23.448Z,1.00
2023-01-28T04:22:26.339Z,1.00
2023-01-28T04:23:29.674Z,1.10
2023-01-28T04:24:32.704Z,1.10
2023-01-28T04:25:34.635Z,1.00
2023-01-28T04:26:37.990Z,1.10
2023-01-28T04:27:40.643Z,1.10
2023-01-28T04:28:50.852Z,1.10
2023-01-28T04:29:54.302Z,1.10
2023-01-28T04:31:13.335Z,1.10
2023-01-28T04:32:30.583Z,1.00
2023-01-28T04:33:39.984Z,1.10
2023-01-28T04:35:09.390Z,1.10
2023-01-28T04:36:35.183Z,1.10
2023-01-28T04:38:07.597Z,1.10
2023-01-28T04:39:28.892Z,1.10
2023-01-28T04:40:56.847Z,1.10
2023-01-28T04:42:06.670Z,1.10
2023-01-28T04:43:27.799Z,1.10
2023-01-28T04:44:47.653Z,1.10
2023-01-28T04:46:30.343Z,1.10
2023-01-28T04:47:50.978Z,1.10
2023-01-28T04:49:14.087Z,1.10
2023-01-28T04:50:36.257Z,1.10
2023-01-28T04:51:57.830Z,1.10
2023-01-28T04:53:21.238Z,1.10
2023-01-28T04:54:30.029Z,1.10
2023-01-28T04:55:35.188Z,1.10
2023-01-28T04:56:38.182Z,1.10
2023-01-28T04:57:40.248Z,1.10
2023-01-28T04:58:44.343Z,1.10
2023-01-28T04:59:50.315Z,1.10
2023-01-28T05:00:55.835Z,1.10
2023-01-28T05:02:00.137Z,1.10
2023-01-28T05:03:02.076Z,1.10
2023-01-28T05:04:05.763Z,1.10
2023-01-28T05:05:10.942Z,1.10
2023-01-28T05:06:42.787Z,1.10
2023-01-28T05:07:53.049Z,1.10
2023-01-28T05:08:56.427Z,1.10
2023-01-28T05:09:58.350Z,1.10
2023-01-28T05:11:01.349Z,1.10
2023-01-28T05:12:03.596Z,1.10
2023-01-28T05:13:08.281Z,1.10
2023-01-28T05:14:10.669Z,1.10
2023-01-28T05:15:36.389Z,1.10
2023-01-28T05:16:38.441Z,1.10
2023-01-28T05:17:44.119Z,1.10
2023-01-28T05:18:48.068Z,1.10
2023-01-28T05:19:52.948Z,1.20
2023-01-28T05:20:59.692Z,1.20
2023-01-28T05:22:01.615Z,1.20
2023-01-28T05:23:11.473Z,1.20
2023-01-28T05:24:24.269Z,1.20
2023-01-28T05:25:27.741Z,1.20
2023-01-28T05:26:30.007Z,1.20
2023-01-28T05:27:33.812Z,1.20
2023-01-28T05:28:36.060Z,1.30
2023-01-28T05:29:39.182Z,1.30
2023-01-28T05:30:42.152Z,1.30
2023-01-28T05:31:44.046Z,1.30
2023-01-28T05:32:48.562Z,1.30
2023-01-28T05:33:53.486Z,1.30
2023-01-28T05:34:57.853Z,1.30
2023-01-28T05:36:00.787Z,1.30
2023-01-28T05:37:04.511Z,1.30
2023-01-28T05:38:09.819Z,1.30
2023-01-28T05:39:13.707Z,1.30
2023-01-28T05:40:17.653Z,1.30
2023-01-28T05:41:20.867Z,1.30
2023-01-28T05:42:28.980Z,1.30
2023-01-28T05:43:44.427Z,1.30
2023-01-28T05:45:03.593Z,1.40
2023-01-28T05:46:26.019Z,1.40
2023-01-28T05:47:50.538Z,1.40
2023-01-28T05:49:02.199Z,1.40
2023-01-28T05:50:23.263Z,1.40
2023-01-28T05:51:48.296Z,1.40
2023-01-28T05:52:53.992Z,1.40
2023-01-28T05:54:00.517Z,1.40
2023-01-28T05:55:04.220Z,1.40
2023-01-28T05:56:06.717Z,1.40
2023-01-28T05:57:10.625Z,1.40
2023-01-28T05:58:12.542Z,1.30
2023-01-28T05:59:15.694Z,1.30
2023-01-28T06:00:20.393Z,1.30
2023-01-28T06:01:22.420Z,1.30
2023-01-28T06:02:29.962Z,1.30
2023-01-28T06:03:36.257Z,1.40
2023-01-28T06:04:39.144Z,1.30
2023-01-28T06:05:41.297Z,1.30
2023-01-28T06:06:44.185Z,1.30
2023-01-28T06:07:46.337Z,1.30
2023-01-28T06:08:49.249Z,1.40
2023-01-28T06:09:57.161Z,1.40
2023-01-28T06:11:00.645Z,1.40
2023-01-28T06:12:07.861Z,1.40
2023-01-28T06:13:20.527Z,1.40
2023-01-28T06:14:46.617Z,1.40
2023-01-28T06:16:24.694Z,1.40
2023-01-28T06:17:56.848Z,1.40
2023-01-28T06:19:04.582Z,1.40
2023-01-28T06:20:08.836Z,1.40
2023-01-28T06:21:13.558Z,1.40
2023-01-28T06:22:16.777Z,1.40
2023-01-28T06:23:18.858Z,1.30
2023-01-28T06:24:21.900Z,1.30
2023-01-28T06:25:23.864Z,1.30
2023-01-28T06:26:26.781Z,1.30
2023-01-28T06:27:28.709Z,1.30
2023-01-28T06:28:32.003Z,1.30
2023-01-28T06:29:34.048Z,1.30
2023-01-28T06:30:36.930Z,1.30
2023-01-28T06:31:38.968Z,1.30
2023-01-28T06:32:41.875Z,1.40
2023-01-28T06:33:43.814Z,1.40
2023-01-28T06:34:48.190Z,1.40
2023-01-28T06:35:50.182Z,1.40
2023-01-28T06:36:53.468Z,1.40
2023-01-28T06:37:55.401Z,1.30
2023-01-28T06:38:58.708Z,1.40
2023-01-28T06:40:00.625Z,1.40
2023-01-28T06:41:03.567Z,1.40
2023-01-28T06:42:05.591Z,1.40
2023-01-28T06:43:08.942Z,1.30
2023-01-28T06:44:11.407Z,1.30
2023-01-28T06:45:14.273Z,1.30
2023-01-28T06:46:17.084Z,1.40
2023-01-28T06:47:20.046Z,1.40
2023-01-28T06:48:22.295Z,1.40
2023-01-28T06:49:25.241Z,1.40
2023-01-28T06:50:28.505Z,1.40
2023-01-28T06:51:31.586Z,1.40
2023-01-28T06:52:33.505Z,1.40
2023-01-28T06:53:36.526Z,1.40
2023-01-28T06:54:38.549Z,1.40
2023-01-28T06:55:41.400Z,1.40
2023-01-28T06:56:44.180Z,1.40
2023-01-28T06:57:47.049Z,1.40
2023-01-28T06:58:49.104Z,1.40
2023-01-28T06:59:52.281Z,1.40
2023-01-28T07:00:54.202Z,1.40
2023-01-28T07:01:57.154Z,1.40
2023-01-28T07:02:59.301Z,1.40
2023-01-28T07:04:02.253Z,1.40
2023-01-28T07:05:04.382Z,1.40
2023-01-28T07:06:08.760Z,1.40
2023-01-28T07:07:10.940Z,1.40
2023-01-28T07:08:13.791Z,1.40
2023-01-28T07:09:15.655Z,1.40
2023-01-28T07:10:18.743Z,1.40
2023-01-28T07:11:20.737Z,1.40
2023-01-28T07:12:23.599Z,1.40
2023-01-28T07:13:25.519Z,1.40
2023-01-28T07:14:28.420Z,1.40
2023-01-28T07:15:30.674Z,1.40
2023-01-28T07:16:33.551Z,1.40
2023-01-28T07:17:35.476Z,1.40
2023-01-28T07:18:38.350Z,1.40
2023-01-28T07:19:40.434Z,1.40
2023-01-28T07:20:43.428Z,1.40
2023-01-28T07:21:46.654Z,1.40
2023-01-28T07:22:49.608Z,1.40
2023-01-28T07:23:52.707Z,1.40
2023-01-28T07:24:54.661Z,1.40
2023-01-28T07:26:01.495Z,1.40
2023-01-28T07:27:04.721Z,1.40
2023-01-28T07:28:07.880Z,1.50
2023-01-28T07:29:09.941Z,1.50
2023-01-28T07:30:13.369Z,1.50
2023-01-28T07:31:16.446Z,1.50
2023-01-28T07:32:18.388Z,1.50
2023-01-28T07:33:21.389Z,1.50
2023-01-28T07:34:23.436Z,1.50
2023-01-28T07:35:26.653Z,1.50
2023-01-28T07:36:28.568Z,1.50
2023-01-28T07:37:33.017Z,1.50
2023-01-28T07:38:36.290Z,1.50
2023-01-28T07:39:38.204Z,1.50
2023-01-28T07:40:42.521Z,1.50
2023-01-28T07:41:44.448Z,1.50
2023-01-28T07:43:07.175Z,1.60
2023-01-28T07:44:13.016Z,1.50
2023-01-28T07:45:16.405Z,1.60
2023-01-28T07:46:19.344Z,1.60
2023-01-28T07:47:21.448Z,1.60
2023-01-28T07:48:24.341Z,1.60
2023-01-28T07:49:26.265Z,1.60
2023-01-28T07:50:30.106Z,1.60
2023-01-28T07:51:32.092Z,1.60
2023-01-28T07:52:44.196Z,1.60
2023-01-28T07:53:47.289Z,1.60
2023-01-28T07:54:49.204Z,1.60
2023-01-28T07:55:52.252Z,1.60
2023-01-28T07:56:54.208Z,1.70
2023-01-28T07:57:57.558Z,1.70
2023-01-28T07:58:59.514Z,1.70
2023-01-28T08:00:02.508Z,1.70
2023-01-28T08:01:15.242Z,1.70
2023-01-28T08:02:17.520Z,1.80
2023-01-28T08:03:20.712Z,1.80
2023-01-28T08:04:22.682Z,1.80
2023-01-28T08:05:27.159Z,1.90
2023-01-28T08:06:29.189Z,1.90
2023-01-28T08:07:32.127Z,1.90
2023-01-28T08:08:36.859Z,1.90
2023-01-28T08:09:38.862Z,2.00
2023-01-28T08:10:42.030Z,2.00
2023-01-28T08:11:43.936Z,2.00
2023-01-28T08:12:53.678Z,2.00
2023-01-28T08:13:55.599Z,2.00
2023-01-28T08:14:58.482Z,2.00
2023-01-28T08:16:00.447Z,2.00
2023-01-28T08:17:03.837Z,2.10
2023-01-28T08:18:06.658Z,2.10
2023-01-28T08:19:10.137Z,2.10
2023-01-28T08:20:12.280Z,2.10
2023-01-28T08:21:15.161Z,2.10
2023-01-28T08:22:17.062Z,2.20
2023-01-28T08:23:23.169Z,2.10
2023-01-28T08:24:27.435Z,2.20
2023-01-28T08:25:30.329Z,2.20
2023-01-28T08:26:33.245Z,2.20
2023-01-28T08:27:35.134Z,2.20
2023-01-28T08:28:37.991Z,2.20
2023-01-28T08:29:39.961Z,2.20
2023-01-28T08:30:43.086Z,2.30
2023-01-28T08:31:45.016Z,2.30
2023-01-28T08:32:47.920Z,2.30
2023-01-28T08:33:50.925Z,2.20
2023-01-28T08:34:52.803Z,2.20
2023-01-28T08:35:55.779Z,2.20
2023-01-28T08:36:57.786Z,2.20
2023-01-28T08:38:01.449Z,2.30
2023-01-28T08:39:03.438Z,2.20
2023-01-28T08:40:08.612Z,2.20
2023-01-28T08:41:10.547Z,2.20
2023-01-28T08:42:13.393Z,2.20
2023-01-28T08:43:15.382Z,2.20
2023-01-28T08:44:18.389Z,2.20
2023-01-28T08:45:22.422Z,2.20
2023-01-28T08:46:25.391Z,2.20
2023-01-28T08:47:27.332Z,2.30
2023-01-28T08:48:30.292Z,2.30
2023-01-28T08:49:32.241Z,2.30
2023-01-28T08:50:36.884Z,2.30
2023-01-28T08:51:40.105Z,2.30
2023-01-28T08:52:44.407Z,2.30
2023-01-28T08:53:47.422Z,2.40
2023-01-28T08:54:49.403Z,2.40
2023-01-28T08:55:55.105Z,2.40
2023-01-28T08:56:57.097Z,2.40
2023-01-28T08:58:02.731Z,2.50
2023-01-28T08:59:04.645Z,2.50
2023-01-28T09:00:10.735Z,2.50
2023-01-28T09:01:12.905Z,2.60
2023-01-28T09:02:30.271Z,2.60
2023-01-28T09:03:34.171Z,2.60
2023-01-28T09:04:36.095Z,2.70
2023-01-28T09:05:39.449Z,2.70
2023-01-28T09:06:42.268Z,2.70
2023-01-28T09:07:44.181Z,2.70
2023-01-28T09:08:47.050Z,2.70
2023-01-28T09:09:49.026Z,2.70
2023-01-28T09:10:56.901Z,2.70
2023-01-28T09:11:58.781Z,2.70
2023-01-28T09:13:05.561Z,2.70
2023-01-28T09:14:07.657Z,2.70
2023-01-28T09:15:11.146Z,2.70
2023-01-28T09:16:14.117Z,2.70
2023-01-28T09:17:17.118Z,2.70
2023-01-28T09:18:19.348Z,2.70
2023-01-28T09:19:22.280Z,2.70
2023-01-28T09:20:24.173Z,2.80
2023-01-28T09:21:27.055Z,2.80
2023-01-28T09:22:28.932Z,2.90
2023-01-28T09:23:31.775Z,2.80
2023-01-28T09:24:33.744Z,2.80
2023-01-28T09:25:37.118Z,2.80
2023-01-28T09:26:40.424Z,2.80
2023-01-28T09:27:43.379Z,2.80
2023-01-28T09:28:47.216Z,2.80
2023-01-28T09:29:50.110Z,2.80
2023-01-28T09:30:52.037Z,2.80
2023-01-28T09:31:54.981Z,2.80
2023-01-28T09:32:58.416Z,2.80
2023-01-28T09:34:01.441Z,2.80
2023-01-28T09:35:03.511Z,2.90
2023-01-28T09:36:07.549Z,2.90
2023-01-28T09:37:09.647Z,2.90
2023-01-28T09:38:12.565Z,2.90
2023-01-28T09:39:14.427Z,2.90
2023-01-28T09:40:18.031Z,2.90
2023-01-28T09:41:24.215Z,2.90
2023-01-28T09:42:48.525Z,2.90
2023-01-28T09:43:59.194Z,2.90
2023-01-28T09:45:04.044Z,2.90
2023-01-28T09:46:07.205Z,2.90
2023-01-28T09:47:13.172Z,2.90
2023-01-28T09:48:17.122Z,2.90
2023-01-28T09:49:30.276Z,2.90
2023-01-28T09:50:32.968Z,2.90
2023-01-28T09:51:37.333Z,2.90
2023-01-28T09:52:41.079Z,2.90
2023-01-28T09:53:47.772Z,3.00
2023-01-28T09:54:55.116Z,3.00
2023-01-28T09:55:59.210Z,3.00
2023-01-28T09:57:05.499Z,3.00
2023-01-28T09:58:12.139Z,3.00
2023-01-28T09:59:17.999Z,3.00
2023-01-28T10:00:25.663Z,3.00
2023-01-28T10:01:39.876Z,3.10
2023-01-28T10:02:54.077Z,3.10
2023-01-28T10:03:59.972Z,3.10
2023-01-28T10:05:05.767Z,3.10
2023-01-28T10:06:15.732Z,3.10
2023-01-28T10:07:22.183Z,3.10
2023-01-28T10:08:34.343Z,3.10
2023-01-28T10:09:42.553Z,3.10
2023-01-28T10:10:47.748Z,3.10
2023-01-28T10:11:54.780Z,3.10
2023-01-28T10:13:05.014Z,3.10
2023-01-28T10:14:11.848Z,3.10
2023-01-28T10:15:22.817Z,3.20
2023-01-28T10:16:30.359Z,3.10
2023-01-28T10:17:35.557Z,3.10
2023-01-28T10:18:41.268Z,3.10
2023-01-28T10:19:47.731Z,3.10
2023-01-28T10:20:52.307Z,3.20
2023-01-28T10:21:58.013Z,3.10
2023-01-28T10:23:04.726Z,3.20
2023-01-28T10:24:12.583Z,3.10
2023-01-28T10:25:17.783Z,3.10
2023-01-28T10:26:23.967Z,3.10
2023-01-28T10:27:31.050Z,3.10
2023-01-28T10:28:34.790Z,3.20
2023-01-28T10:29:39.831Z,3.10
2023-01-28T10:30:42.956Z,3.10
2023-01-28T10:31:52.145Z,3.10
2023-01-28T10:32:57.243Z,3.10
2023-01-28T10:34:00.656Z,3.10
2023-01-28T10:35:03.604Z,3.10
2023-01-28T10:36:07.636Z,3.10
2023-01-28T10:37:13.456Z,3.10
2023-01-28T10:38:17.007Z,3.20
2023-01-28T10:39:22.422Z,3.20
2023-01-28T10:40:24.331Z,3.30
2023-01-28T10:41:27.287Z,3.30
2023-01-28T10:42:29.914Z,3.40
2023-01-28T10:43:34.408Z,3.50
2023-01-28T10:44:39.217Z,3.60
2023-01-28T10:45:46.471Z,3.80
2023-01-28T10:46:50.304Z,3.90
2023-01-28T10:47:54.488Z,4.00
2023-01-28T10:49:01.360Z,4.20
2023-01-28T10:50:04.900Z,4.40
2023-01-28T10:51:07.829Z,4.40
2023-01-28T10:52:13.420Z,4.40
2023-01-28T10:53:16.282Z,4.50
2023-01-28T10:54:19.564Z,4.60
2023-01-28T10:55:23.123Z,4.70
2023-01-28T10:56:26.015Z,4.80
2023-01-28T10:57:29.210Z,4.80
2023-01-28T10:58:32.852Z,4.80
2023-01-28T10:59:36.866Z,4.80
2023-01-28T11:00:41.254Z,4.70
2023-01-28T11:01:45.973Z,4.70
2023-01-28T11:02:49.661Z,4.80
2023-01-28T11:03:55.785Z,4.80
2023-01-28T11:05:02.442Z,4.70
2023-01-28T11:06:05.614Z,4.70
2023-01-28T11:07:16.587Z,4.70
2023-01-28T11:08:19.900Z,4.60
2023-01-28T11:09:22.885Z,4.60
2023-01-28T11:10:26.941Z,4.60
2023-01-28T11:11:30.371Z,4.70
2023-01-28T11:12:32.400Z,4.70
2023-01-28T11:13:35.328Z,4.80
2023-01-28T11:14:37.266Z,4.90
2023-01-28T11:15:46.846Z,5.00
2023-01-28T11:16:51.081Z,5.10
2023-01-28T11:17:56.915Z,5.20
2023-01-28T11:19:01.136Z,5.30
2023-01-28T11:20:11.177Z,5.30
2023-01-28T11:21:16.727Z,5.30
2023-01-28T11:22:23.201Z,5.30
2023-01-28T11:23:27.565Z,5.30
2023-01-28T11:24:31.604Z,5.30
2023-01-28T11:25:34.433Z,5.40
2023-01-28T11:26:38.481Z,5.40
2023-01-28T11:27:40.446Z,5.50
2023-01-28T11:28:43.890Z,5.50
2023-01-28T11:29:46.802Z,5.60
2023-01-28T11:30:50.792Z,5.70
2023-01-28T11:31:55.567Z,5.80
2023-01-28T11:33:00.104Z,6.00
2023-01-28T11:34:06.020Z,6.10
2023-01-28T11:35:08.030Z,6.30
2023-01-28T11:36:15.317Z,6.30
2023-01-28T11:37:18.751Z,6.40
2023-01-28T11:38:21.612Z,6.60
2023-01-28T11:39:26.040Z,6.70
2023-01-28T11:40:28.138Z,6.80
2023-01-28T11:41:32.190Z,6.80
2023-01-28T11:42:34.161Z,6.90
2023-01-28T11:43:37.690Z,7.00
2023-01-28T11:44:40.150Z,7.10
2023-01-28T11:45:45.387Z,7.20
2023-01-28T11:47:03.502Z,7.10
2023-01-28T11:48:15.507Z,6.90
2023-01-28T11:49:22.234Z,7.00
2023-01-28T11:50:33.414Z,7.00
2023-01-28T11:51:38.905Z,6.90
2023-01-28T11:53:05.117Z,6.80
2023-01-28T11:54:22.329Z,6.70
2023-01-28T11:55:35.295Z,6.60
2023-01-28T11:56:45.458Z,6.60
2023-01-28T11:57:53.873Z,6.60
2023-01-28T11:59:02.107Z,6.50
2023-01-28T12:00:17.800Z,6.30
2023-01-28T12:01:25.163Z,6.30
2023-01-28T12:02:38.892Z,6.10
2023-01-28T12:03:51.941Z,5.90
2023-01-28T12:05:05.264Z,5.90
2023-01-28T12:06:21.234Z,5.80
2023-01-28T12:07:30.585Z,5.70
2023-01-28T12:08:37.272Z,5.80
2023-01-28T12:09:43.674Z,5.80
2023-01-28T12:10:51.047Z,5.90
2023-01-28T12:12:11.940Z,6.00
2023-01-28T12:13:25.685Z,6.00
2023-01-28T12:14:33.798Z,6.00
2023-01-28T12:15:57.262Z,6.00
2023-01-28T12:17:07.453Z,6.10
2023-01-28T12:18:18.943Z,5.90
2023-01-28T12:19:28.817Z,5.90
2023-01-28T12:20:34.471Z,5.90
2023-01-28T12:21:41.535Z,6.00
2023-01-28T12:22:53.379Z,6.00
2023-01-28T12:24:04.360Z,6.00
2023-01-28T12:25:20.650Z,6.10
2023-01-28T12:26:27.778Z,6.00
2023-01-28T12:27:34.328Z,5.90
2023-01-28T12:28:45.553Z,5.80
2023-01-28T12:29:53.514Z,5.70
2023-01-28T12:31:02.372Z,5.70
2023-01-28T12:32:12.606Z,5.60
2023-01-28T12:33:39.486Z,5.60
2023-01-28T12:34:49.831Z,5.60
2023-01-28T12:36:02.611Z,5.60
2023-01-28T12:37:07.743Z,5.60
2023-01-28T12:38:15.690Z,5.50
2023-01-28T12:39:25.202Z,5.40
2023-01-28T12:40:40.717Z,5.30
2023-01-28T12:41:45.045Z,5.20
2023-01-28T12:42:48.982Z,5.10
2023-01-28T12:43:55.616Z,4.90
2023-01-28T12:45:01.854Z,4.70
2023-01-28T12:46:07.096Z,4.70
2023-01-28T12:47:11.870Z,4.80
2023-01-28T12:48:15.680Z,4.70
2023-01-28T12:49:20.314Z,4.70
2023-01-28T12:50:25.290Z,4.60
2023-01-28T12:51:29.929Z,4.70
2023-01-28T12:52:33.895Z,4.70
2023-01-28T12:53:39.990Z,4.60
2023-01-28T12:54:45.356Z,4.60
2023-01-28T12:55:48.679Z,4.50
2023-01-28T12:56:52.939Z,4.50
2023-01-28T12:57:57.054Z,4.50
2023-01-28T12:59:03.682Z,4.50
2023-01-28T13:00:13.574Z,4.50
2023-01-28T13:01:19.274Z,4.40
2023-01-28T13:02:24.412Z,4.30
2023-01-28T13:03:32.208Z,4.30
2023-01-28T13:04:39.908Z,4.30
2023-01-28T13:05:47.547Z,4.30
2023-01-28T13:06:50.928Z,4.30
2023-01-28T13:07:56.313Z,4.20
2023-01-28T13:09:00.632Z,4.20
2023-01-28T13:10:06.548Z,4.20
2023-01-28T13:11:12.323Z,4.10
2023-01-28T13:12:15.499Z,4.10
2023-01-28T13:13:18.675Z,4.00
2023-01-28T13:14:23.932Z,4.00
2023-01-28T13:15:26.032Z,4.00
2023-01-28T13:16:37.391Z,4.00
2023-01-28T13:17:40.038Z,4.00
2023-01-28T13:18:45.210Z,4.00
2023-01-28T13:19:47.130Z,4.00
2023-01-28T13:20:54.149Z,4.00
2023-01-28T13:21:57.477Z,4.00
2023-01-28T13:23:04.544Z,4.00
2023-01-28T13:24:19.933Z,4.10
2023-01-28T13:25:23.951Z,4.10
2023-01-28T13:26:27.919Z,4.10
2023-01-28T13:27:30.903Z,4.10
2023-01-28T13:28:33.625Z,4.10
2023-01-28T13:29:36.597Z,4.10
2023-01-28T13:30:49.269Z,4.00
2023-01-28T13:31:53.304Z,4.00
2023-01-28T13:32:56.520Z,3.90
2023-01-28T13:34:02.569Z,4.00
2023-01-28T13:35:07.193Z,4.00
2023-01-28T13:36:19.980Z,4.10
2023-01-28T13:37:30.936Z,4.10
2023-01-28T13:38:34.378Z,4.10
2023-01-28T13:39:36.868Z,4.10
2023-01-28T13:40:41.373Z,4.10
2023-01-28T13:41:44.125Z,4.10
2023-01-28T13:42:57.990Z,4.10
2023-01-28T13:44:01.233Z,4.10
2023-01-28T13:45:20.969Z,4.10
2023-01-28T13:46:28.353Z,4.10
2023-01-28T13:47:32.119Z,4.20
2023-01-28T13:48:40.361Z,4.20
2023-01-28T13:49:43.321Z,4.20
2023-01-28T13:50:46.599Z,4.30
2023-01-28T13:51:56.372Z,4.30
2023-01-28T13:53:01.959Z,4.30
2023-01-28T13:54:04.660Z,4.40
2023-01-28T13:55:23.240Z,4.40
2023-01-28T13:56:36.221Z,4.50
2023-01-28T13:57:57.422Z,4.50
2023-01-28T13:59:11.472Z,4.50
2023-01-28T14:00:22.202Z,4.50
2023-01-28T14:01:39.801Z,4.40
2023-01-28T14:02:53.308Z,4.40
2023-01-28T14:04:08.163Z,4.40
2023-01-28T14:05:41.950Z,4.40
2023-01-28T14:07:02.559Z,4.40
2023-01-28T14:08:28.566Z,4.30
2023-01-28T14:09:46.481Z,4.20
2023-01-28T14:10:59.929Z,4.20
2023-01-28T14:12:21.134Z,4.20
2023-01-28T14:13:33.037Z,4.10
2023-01-28T14:14:55.011Z,4.10
2023-01-28T14:15:58.777Z,4.10
2023-01-28T14:17:04.791Z,4.10
2023-01-28T14:18:14.427Z,4.00
2023-01-28T14:19:17.348Z,4.00
2023-01-28T14:20:20.699Z,4.00
2023-01-28T14:21:23.707Z,4.00
2023-01-28T14:22:27.078Z,4.00
2023-01-28T14:23:32.350Z,4.00
2023-01-28T14:24:35.446Z,4.00
2023-01-28T14:25:40.302Z,4.00
2023-01-28T14:26:45.824Z,4.00
2023-01-28T14:27:52.428Z,4.00
2023-01-28T14:28:59.309Z,4.00
2023-01-28T14:30:05.066Z,4.00
2023-01-28T14:31:09.259Z,4.00
2023-01-28T14:32:13.834Z,3.90
2023-01-28T14:33:16.747Z,3.90
2023-01-28T14:34:22.056Z,4.00
2023-01-28T14:35:28.077Z,3.90
2023-01-28T14:36:30.333Z,3.90
2023-01-28T14:37:34.095Z,3.90
2023-01-28T14:38:38.798Z,3.90
2023-01-28T14:39:43.970Z,3.90
2023-01-28T14:40:46.018Z,3.80
2023-01-28T14:41:50.435Z,3.90
2023-01-28T14:42:55.247Z,3.80
2023-01-28T14:43:57.774Z,3.80